Santo Antonio do Ica, Brazil
Current Conditions -  °F | °C
As of 4:00 AM on Tuesday 21 Oct 2014 (Local Time) from SKLT Reporting Station
Rain Showers Rain Showers  
Wind Chill: 75°   Ceiling: 800
Heat Index: 75°   Visibility: 4mi
Dew Point: 73°   Wind: 0mph
Humidity: 94%   Direction: NA
Pressure: 29.87"   Gusts: NA
Location:  3.1°S, 67.94°W
Report Text: SKLT 210800Z 00000KT 6000 VCSH FEW004 BKN008 24/23 A2987 RERA RMK AD OPR IMC
Loading
Personal Weather Stations






























Interactive Weather Map
Tropical Storm Tracking
New forecast layout! Learn more

10-Day Weather Forecast

Advertisements
Track Severe Weather on mobile